Impacts TAF Board INFO
FOR SITUATIONAL AWARENESS. NOT TO BE USED FOR FLIGHT PLANNING PURPOSES.
IDs:

KTPA - Tampa Intl Arpt, FL, US

Issued at 0522 UTC 17 Aug 2018
Updated at 0526 UTC 17 Aug 2018
Potential Impact None Slight Moderate High
Time<<18/06Z 18/07Z 18/08Z 18/09Z 18/10Z 18/11Z 18/12Z 18/13Z 18/14Z 18/15Z 18/16Z 18/17Z 18/18Z
Type PRVL PRVL PRVL PRVL PRVL PRVL
VIS >6 >6 >6 >6 >6 >6
CIG 100 100 100 100 100 100
Cover BKN BKN BKN BKN BKN BKN
FltCat VFR VFR VFR VFR VFR VFR
WX VCSH VCSH VCSH VCSH VCSH VCSH
WDir 80 80 80 80 80 80
WSpd 5 5 5 5 5 5
WGst -- -- -- -- -- --

Raw TAF
KTPA 170522Z 1706/1812 VRB03KT P6SM VCSH FEW025 BKN100
  FM170800 VRB03KT P6SM FEW025 SCT120 BKN250
  FM171000 VRB03KT P6SM SCT250
  FM171400 14006KT P6SM SCT025 SCT250
  FM171700 21007KT P6SM SCT040 SCT250
  FM171900 24007KT P6SM VCTS SCT040CB BKN250
  FM180100 08005KT P6SM VCSH SCT040 BKN100


METAR Board
Radar Display
Forecast Discussion

FOR SITUATIONAL AWARENESS. NOT TO BE USED FOR FLIGHT PLANNING PURPOSES.